Time;durP1;ratioP1;P1;durP2;ratioP2;P2;SDS_P1;SDS_P2;PMS_P1;PMS_P2;Temp;Humidity;BMP_temperature;BMP_pressure;BME280_temperature;BME280_humidity;BME280_pressure;Samples;Min_cycle;Max_cycle;Signal;HPM_P1;HPM_P2
2023/05/12 00:00:06;;;;;;;20.70;17.97;;;16.40;99.90;;;;;;5052855;28;20445;-56
2023/05/12 00:02:33;;;;;;;17.97;16.10;;;16.30;99.90;;;;;;5052754;28;20513;-56
2023/05/12 00:04:59;;;;;;;19.40;16.83;;;16.30;99.90;;;;;;5052694;28;20465;-56
2023/05/12 00:07:26;;;;;;;18.17;16.33;;;16.30;99.90;;;;;;5056083;28;20450;-56
2023/05/12 00:09:54;;;;;;;19.07;16.07;;;16.30;99.90;;;;;;5056223;28;20879;-56
2023/05/12 00:12:21;;;;;;;18.70;16.20;;;16.30;99.90;;;;;;5056485;28;20441;-56
2023/05/12 00:14:48;;;;;;;20.87;18.30;;;16.30;99.90;;;;;;5056304;28;20473;-56
2023/05/12 00:17:14;;;;;;;19.63;17.57;;;16.20;99.90;;;;;;5056376;28;20445;-56
2023/05/12 00:19:42;;;;;;;19.47;16.77;;;16.20;99.90;;;;;;5056384;28;20453;-55
2023/05/12 00:22:10;;;;;;;18.27;16.47;;;16.20;99.90;;;;;;5056189;28;20485;-55
2023/05/12 00:24:36;;;;;;;20.03;17.93;;;16.20;99.90;;;;;;5056124;28;20556;-55
2023/05/12 00:27:05;;;;;;;18.93;16.93;;;16.30;99.90;;;;;;5055909;28;20449;-55
2023/05/12 00:29:32;;;;;;;16.50;14.87;;;16.30;99.90;;;;;;5056152;28;20461;-55
2023/05/12 00:31:59;;;;;;;16.77;15.10;;;16.30;99.90;;;;;;5055923;28;20445;-55
2023/05/12 00:34:27;;;;;;;15.07;13.57;;;16.30;99.90;;;;;;5055993;28;20512;-56
2023/05/12 00:36:53;;;;;;;14.67;13.27;;;16.30;99.90;;;;;;5056016;28;20456;-56
2023/05/12 00:39:21;;;;;;;16.83;15.00;;;16.30;99.90;;;;;;5056024;28;20449;-56
2023/05/12 00:41:49;;;;;;;16.33;14.77;;;16.30;99.90;;;;;;5055911;28;20547;-56
2023/05/12 00:44:17;;;;;;;15.40;13.97;;;16.30;99.90;;;;;;5055803;28;20936;-56
2023/05/12 00:46:44;;;;;;;15.13;13.63;;;16.30;99.90;;;;;;5065455;28;20541;-55
2023/05/12 00:49:11;;;;;;;14.20;12.80;;;16.30;99.90;;;;;;5055744;28;20448;-56
2023/05/12 00:51:39;;;;;;;12.83;11.53;;;16.30;99.90;;;;;;5055735;28;20442;-56
2023/05/12 00:54:06;;;;;;;14.33;12.83;;;16.30;99.90;;;;;;5055665;28;20461;-56
2023/05/12 00:56:34;;;;;;;14.00;12.60;;;16.30;99.90;;;;;;5055686;28;20457;-56
2023/05/12 00:59:00;;;;;;;15.07;12.87;;;16.30;99.90;;;;;;5055603;28;20450;-56
2023/05/12 01:01:29;;;;;;;13.47;12.17;;;16.40;99.90;;;;;;5055993;28;20449;-55
2023/05/12 01:03:55;;;;;;;12.70;11.50;;;16.40;99.90;;;;;;5055120;28;20442;-55
2023/05/12 01:06:29;;;;;;;13.80;12.50;;;16.40;99.90;;;;;;5055438;28;20455;-55
2023/05/12 01:08:56;;;;;;;12.83;11.63;;;16.40;99.90;;;;;;5055259;28;20454;-55
2023/05/12 01:11:23;;;;;;;13.40;12.10;;;16.40;99.90;;;;;;5055523;28;20468;-55
2023/05/12 01:13:49;;;;;;;14.10;12.80;;;16.40;99.90;;;;;;5055331;28;20461;-55
2023/05/12 01:16:18;;;;;;;16.53;12.77;;;16.40;99.90;;;;;;5055518;28;20446;-55
2023/05/12 01:18:50;;;;;;;14.53;13.03;;;16.40;99.90;;;;;;5056167;28;20866;-55
2023/05/12 01:21:17;;;;;;;13.27;11.90;;;16.40;99.90;;;;;;5056167;28;20456;-55
2023/05/12 01:23:49;;;;;;;11.73;10.60;;;16.40;99.90;;;;;;5055320;28;21033;-55
2023/05/12 01:26:18;;;;;;;12.67;11.37;;;16.40;99.90;;;;;;5055151;28;20896;-55
2023/05/12 01:28:45;;;;;;;10.90;9.90;;;16.40;99.90;;;;;;5055472;28;20468;-55
2023/05/12 01:31:13;;;;;;;12.00;10.83;;;16.40;99.90;;;;;;5054748;28;20972;-55
2023/05/12 01:33:41;;;;;;;11.07;9.97;;;16.40;99.90;;;;;;5055057;28;20454;-55
2023/05/12 01:36:08;;;;;;;13.23;11.73;;;16.30;99.90;;;;;;5054623;28;20473;-56
2023/05/12 01:38:35;;;;;;;10.77;9.87;;;16.30;99.90;;;;;;5054782;28;20818;-55
2023/05/12 01:41:02;;;;;;;10.17;9.20;;;16.20;99.90;;;;;;5054884;28;20481;-55
2023/05/12 01:43:30;;;;;;;10.23;9.23;;;16.30;99.90;;;;;;5054455;28;20488;-55
2023/05/12 01:45:56;;;;;;;11.00;10.00;;;16.20;99.90;;;;;;5054445;28;20465;-54
2023/05/12 01:48:23;;;;;;;11.00;9.90;;;16.10;99.90;;;;;;5054812;28;20551;-55
2023/05/12 01:50:50;;;;;;;10.20;9.27;;;16.20;99.90;;;;;;5054643;28;20523;-55
2023/05/12 01:53:16;;;;;;;8.77;7.97;;;16.20;99.90;;;;;;5054715;28;20437;-55
2023/05/12 01:55:43;;;;;;;9.40;8.40;;;16.20;99.90;;;;;;5054466;28;20465;-55
2023/05/12 01:58:10;;;;;;;7.67;6.90;;;16.20;99.90;;;;;;5054531;28;20868;-55
2023/05/12 02:00:38;;;;;;;8.77;7.97;;;16.20;99.90;;;;;;5054560;28;20449;-55
2023/05/12 02:03:04;;;;;;;9.33;8.40;;;16.20;99.90;;;;;;5054472;28;20473;-55
2023/05/12 02:05:31;;;;;;;9.00;8.20;;;16.10;99.90;;;;;;5054303;28;20499;-55
2023/05/12 02:07:58;;;;;;;8.17;7.37;;;16.20;99.90;;;;;;5054059;28;20465;-55
2023/05/12 02:10:24;;;;;;;6.00;5.40;;;16.20;99.90;;;;;;5053985;28;20824;-55
2023/05/12 02:12:51;;;;;;;5.07;4.60;;;16.10;99.90;;;;;;5054183;28;20511;-55
2023/05/12 02:15:18;;;;;;;7.27;5.60;;;16.00;99.90;;;;;;5054030;28;20469;-55
2023/05/12 02:17:46;;;;;;;4.07;3.67;;;16.00;99.90;;;;;;5053824;28;20453;-55
2023/05/12 02:20:12;;;;;;;4.30;3.90;;;15.90;99.90;;;;;;5054088;28;20787;-55
2023/05/12 02:22:39;;;;;;;3.10;2.90;;;15.90;99.90;;;;;;5054077;28;20485;-55
2023/05/12 02:25:07;;;;;;;2.53;2.33;;;15.80;99.90;;;;;;5053679;28;21002;-55
2023/05/12 02:27:33;;;;;;;2.70;2.50;;;15.70;99.90;;;;;;5053895;28;20446;-55
2023/05/12 02:30:00;;;;;;;2.43;2.00;;;15.70;99.90;;;;;;5052998;28;20974;-55
2023/05/12 02:32:28;;;;;;;2.93;2.73;;;15.60;99.90;;;;;;5053626;28;20820;-55
2023/05/12 02:34:56;;;;;;;3.47;3.17;;;15.50;99.90;;;;;;5053378;28;20851;-55
2023/05/12 02:37:23;;;;;;;2.53;2.20;;;15.30;99.90;;;;;;5053518;28;20962;-55
2023/05/12 02:39:50;;;;;;;3.43;3.13;;;15.20;99.90;;;;;;5053858;28;20835;-55
2023/05/12 02:42:17;;;;;;;3.13;2.83;;;15.20;99.90;;;;;;5053700;28;20488;-55
2023/05/12 02:44:43;;;;;;;2.10;2.00;;;15.20;99.90;;;;;;5053670;28;20520;-55
2023/05/12 02:47:10;;;;;;;2.43;2.23;;;15.20;99.90;;;;;;5053355;28;20986;-55
2023/05/12 02:49:37;;;;;;;1.97;1.87;;;15.20;99.90;;;;;;5053596;28;20449;-55
2023/05/12 02:52:06;;;;;;;4.43;2.23;;;15.20;99.90;;;;;;5053553;28;20461;-56
2023/05/12 02:54:32;;;;;;;2.97;2.77;;;15.20;99.90;;;;;;5053367;28;20484;-55
2023/05/12 02:57:03;;;;;;;3.40;2.53;;;15.30;99.90;;;;;;5053418;28;20467;-56
2023/05/12 02:59:30;;;;;;;2.80;2.50;;;15.30;99.90;;;;;;5053465;28;20525;-56
2023/05/12 03:01:57;;;;;;;2.77;2.57;;;15.30;99.90;;;;;;5053406;28;20503;-56
2023/05/12 03:04:23;;;;;;;2.53;2.33;;;15.40;99.90;;;;;;5053334;28;20473;-56
2023/05/12 03:06:50;;;;;;;5.33;4.70;;;15.40;99.90;;;;;;5053303;28;20460;-55
2023/05/12 03:09:18;;;;;;;5.73;5.20;;;15.40;99.90;;;;;;5053011;28;20468;-55
2023/05/12 03:11:45;;;;;;;5.20;4.80;;;15.40;99.90;;;;;;5053074;28;20449;-55
2023/05/12 03:14:12;;;;;;;7.47;6.87;;;15.40;99.90;;;;;;5053261;28;20525;-56
2023/05/12 03:16:38;;;;;;;4.40;4.10;;;15.40;99.90;;;;;;5053310;28;20456;-56
2023/05/12 03:19:05;;;;;;;4.23;3.87;;;15.40;99.90;;;;;;5053272;28;20499;-55
2023/05/12 03:21:32;;;;;;;3.03;2.83;;;15.50;99.90;;;;;;5053218;28;20449;-56
2023/05/12 03:23:58;;;;;;;2.43;2.23;;;15.50;99.90;;;;;;5053023;28;20488;-56
2023/05/12 03:26:26;;;;;;;2.60;2.40;;;15.50;99.90;;;;;;5053147;28;20450;-56
2023/05/12 03:28:53;;;;;;;2.57;1.67;;;15.50;99.90;;;;;;5053074;28;20468;-56
2023/05/12 03:31:20;;;;;;;1.90;1.80;;;15.50;99.90;;;;;;5052797;28;20464;-56
2023/05/12 03:33:47;;;;;;;1.67;1.57;;;15.50;99.90;;;;;;5053005;28;20449;-56
2023/05/12 03:36:13;;;;;;;1.77;1.40;;;15.50;99.90;;;;;;5052992;28;20449;-56
2023/05/12 03:38:40;;;;;;;1.67;1.57;;;15.60;99.90;;;;;;5052850;28;20446;-56
2023/05/12 03:41:07;;;;;;;1.70;1.60;;;15.60;99.90;;;;;;5055614;28;21013;-55
2023/05/12 03:43:35;;;;;;;2.57;2.30;;;15.60;99.90;;;;;;5056950;28;20480;-55
2023/05/12 03:46:02;;;;;;;2.07;1.97;;;15.60;99.90;;;;;;5056665;28;20983;-56
2023/05/12 03:48:29;;;;;;;2.00;1.90;;;15.70;99.90;;;;;;5056655;28;20503;-56
2023/05/12 03:50:55;;;;;;;2.30;2.10;;;15.70;99.90;;;;;;5057018;28;20445;-56
2023/05/12 03:53:22;;;;;;;2.30;1.50;;;15.70;99.90;;;;;;5056962;28;20446;-56
2023/05/12 03:55:49;;;;;;;1.43;1.33;;;15.70;99.90;;;;;;5056993;28;20480;-56
2023/05/12 03:58:15;;;;;;;1.70;1.60;;;15.70;99.90;;;;;;5056832;28;20453;-56
2023/05/12 04:00:43;;;;;;;1.60;1.50;;;15.70;99.90;;;;;;5056773;28;20449;-56
2023/05/12 04:03:10;;;;;;;1.50;1.40;;;15.70;99.90;;;;;;5056438;28;21029;-56
2023/05/12 04:05:38;;;;;;;2.00;1.70;;;15.70;99.90;;;;;;5056611;28;21052;-56
2023/05/12 04:08:05;;;;;;;2.50;2.30;;;15.80;99.90;;;;;;5056279;28;20966;-56
2023/05/12 04:10:31;;;;;;;2.50;2.30;;;15.80;99.90;;;;;;5057275;28;20442;-56
2023/05/12 04:12:58;;;;;;;2.50;2.30;;;15.80;99.90;;;;;;5056547;28;20445;-56
2023/05/12 04:15:25;;;;;;;2.23;2.03;;;15.80;99.90;;;;;;5056407;28;20527;-56
2023/05/12 04:17:54;;;;;;;1.80;1.70;;;15.80;99.90;;;;;;5057104;28;20452;-56
2023/05/12 04:20:21;;;;;;;2.93;2.30;;;15.80;99.90;;;;;;5057488;28;20437;-56
2023/05/12 04:22:47;;;;;;;1.90;1.80;;;15.80;99.90;;;;;;5056784;28;20489;-55
2023/05/12 04:25:14;;;;;;;1.70;1.60;;;15.80;99.90;;;;;;5056675;28;20469;-56
2023/05/12 04:27:41;;;;;;;2.13;1.93;;;15.80;99.90;;;;;;5056472;28;20453;-56
2023/05/12 04:30:08;;;;;;;2.30;1.77;;;15.90;99.90;;;;;;5056452;28;20821;-56
2023/05/12 04:32:36;;;;;;;1.80;1.70;;;15.90;99.90;;;;;;5056471;28;20450;-56
2023/05/12 04:35:04;;;;;;;2.13;2.03;;;15.90;99.90;;;;;;5056234;28;20527;-56
2023/05/12 04:37:31;;;;;;;1.50;1.23;;;15.90;99.90;;;;;;5056029;28;20454;-55
2023/05/12 04:39:57;;;;;;;3.10;1.70;;;15.90;99.90;;;;;;5056085;28;20528;-56
2023/05/12 04:42:24;;;;;;;2.00;1.90;;;16.00;99.90;;;;;;5056247;28;20491;-56
2023/05/12 04:44:51;;;;;;;2.17;2.07;;;16.00;99.90;;;;;;5055980;28;20462;-56
2023/05/12 04:47:17;;;;;;;2.47;2.10;;;16.00;99.90;;;;;;5056152;28;20445;-56
2023/05/12 04:49:44;;;;;;;1.90;1.80;;;16.10;99.90;;;;;;5055817;28;20448;-56
2023/05/12 04:52:12;;;;;;;2.07;1.97;;;16.00;99.90;;;;;;5054967;28;20467;-56
2023/05/12 04:54:39;;;;;;;2.07;1.87;;;16.10;99.90;;;;;;5055358;28;20979;-56
2023/05/12 04:57:06;;;;;;;2.47;2.27;;;16.10;99.90;;;;;;5055719;28;20520;-56
2023/05/12 04:59:32;;;;;;;2.57;2.37;;;16.10;99.90;;;;;;5055659;28;20453;-55
2023/05/12 05:01:59;;;;;;;2.40;2.27;;;16.20;99.90;;;;;;5055535;28;20445;-56
2023/05/12 05:04:26;;;;;;;2.80;2.60;;;16.20;99.90;;;;;;5055688;28;20496;-55
2023/05/12 05:06:54;;;;;;;2.40;2.20;;;16.20;99.90;;;;;;5055747;28;20456;-56
2023/05/12 05:09:22;;;;;;;2.37;2.17;;;16.30;99.90;;;;;;5055157;28;20477;-56
2023/05/12 05:11:49;;;;;;;2.83;2.53;;;16.30;99.90;;;;;;5055592;28;20464;-56
2023/05/12 05:14:15;;;;;;;2.30;2.10;;;16.30;99.90;;;;;;5054997;28;20838;-56
2023/05/12 05:16:42;;;;;;;2.50;2.30;;;16.30;99.90;;;;;;5054967;28;20819;-56
2023/05/12 05:19:09;;;;;;;2.27;2.07;;;16.40;99.90;;;;;;5055315;28;20450;-56
2023/05/12 05:21:35;;;;;;;2.60;2.40;;;16.40;99.90;;;;;;5055404;28;20526;-56
2023/05/12 05:24:02;;;;;;;2.17;2.07;;;16.40;99.90;;;;;;5055009;28;20481;-56
2023/05/12 05:26:30;;;;;;;3.40;3.03;;;16.40;99.90;;;;;;5055181;28;20450;-56
2023/05/12 05:28:57;;;;;;;3.80;2.80;;;16.50;99.90;;;;;;5054944;28;20975;-56
2023/05/12 05:31:23;;;;;;;3.47;2.93;;;16.50;99.90;;;;;;5054952;28;20446;-56
2023/05/12 05:33:50;;;;;;;4.00;3.70;;;16.50;99.90;;;;;;5054982;28;20442;-56
2023/05/12 05:36:17;;;;;;;3.57;2.90;;;16.50;99.90;;;;;;5054900;28;20943;-56
2023/05/12 05:38:43;;;;;;;6.63;4.20;;;16.50;99.90;;;;;;5054649;28;20990;-56
2023/05/12 05:41:10;;;;;;;3.30;3.00;;;16.50;99.90;;;;;;5054980;28;20457;-56
2023/05/12 05:43:38;;;;;;;4.30;3.90;;;16.50;99.90;;;;;;5054849;28;20481;-56
2023/05/12 05:46:05;;;;;;;4.20;3.50;;;16.50;99.90;;;;;;5054782;28;20474;-56
2023/05/12 05:48:32;;;;;;;3.77;3.47;;;16.60;99.90;;;;;;5055568;28;20953;-56
2023/05/12 05:50:59;;;;;;;3.23;3.00;;;16.60;99.90;;;;;;5056271;28;20446;-56
2023/05/12 05:53:25;;;;;;;2.87;2.67;;;16.70;99.90;;;;;;5055022;28;20438;-56
2023/05/12 05:55:52;;;;;;;3.10;2.90;;;16.80;99.90;;;;;;5054233;28;20967;-56
2023/05/12 05:58:19;;;;;;;2.80;2.40;;;17.00;99.90;;;;;;5054557;28;20445;-56
2023/05/12 06:00:47;;;;;;;3.10;2.90;;;17.00;99.90;;;;;;5054165;28;20948;-56
2023/05/12 06:03:13;;;;;;;4.67;2.80;;;17.20;99.90;;;;;;5053626;28;20486;-56
2023/05/12 06:05:41;;;;;;;4.23;2.70;;;17.20;99.90;;;;;;5054145;28;20469;-56
2023/05/12 06:08:09;;;;;;;5.60;2.80;;;17.30;99.90;;;;;;5053981;28;20879;-56
2023/05/12 06:10:36;;;;;;;2.83;2.43;;;17.40;99.90;;;;;;5054305;28;20433;-56
2023/05/12 06:13:03;;;;;;;7.13;3.00;;;17.50;99.90;;;;;;5054355;28;20461;-56
2023/05/12 06:15:30;;;;;;;3.20;2.80;;;17.60;99.90;;;;;;5053806;28;21005;-56
2023/05/12 06:17:58;;;;;;;5.27;2.50;;;17.70;99.90;;;;;;5054133;28;20446;-56
2023/05/12 06:20:24;;;;;;;5.67;2.30;;;17.80;99.90;;;;;;5054064;28;20796;-56
2023/05/12 06:22:51;;;;;;;4.70;2.93;;;17.90;99.90;;;;;;5053745;28;21029;-57
2023/05/12 06:25:18;;;;;;;5.37;2.47;;;18.00;99.90;;;;;;5053872;28;20493;-56
2023/05/12 06:27:44;;;;;;;3.63;2.90;;;18.00;99.90;;;;;;5053982;28;20457;-56
2023/05/12 06:30:12;;;;;;;4.57;2.70;;;18.10;99.90;;;;;;5053911;28;20450;-56
2023/05/12 06:32:38;;;;;;;2.90;2.37;;;18.20;99.70;;;;;;5053883;28;20448;-56
2023/05/12 06:35:08;;;;;;;2.80;2.60;;;18.20;99.30;;;;;;5053829;28;20470;-56
2023/05/12 06:37:34;;;;;;;3.60;2.73;;;18.30;99.20;;;;;;5053853;28;20454;-56
2023/05/12 06:40:01;;;;;;;3.90;2.87;;;18.40;99.10;;;;;;5053616;28;20997;-56
2023/05/12 06:42:27;;;;;;;3.40;2.50;;;18.40;98.80;;;;;;5053636;28;20446;-55
2023/05/12 06:44:54;;;;;;;4.87;3.20;;;18.30;98.30;;;;;;5053609;28;20485;-56
2023/05/12 06:47:21;;;;;;;5.43;2.60;;;18.30;98.30;;;;;;5053687;28;20503;-56
2023/05/12 06:49:48;;;;;;;2.97;2.70;;;18.20;98.30;;;;;;5053877;28;20446;-55
2023/05/12 06:52:17;;;;;;;3.50;3.10;;;18.10;98.30;;;;;;5053304;28;20460;-56
2023/05/12 06:54:44;;;;;;;3.20;3.00;;;18.00;98.30;;;;;;5053103;28;20480;-56
2023/05/12 06:57:10;;;;;;;3.30;3.10;;;18.00;98.40;;;;;;5053449;28;20442;-56
2023/05/12 06:59:37;;;;;;;3.17;2.87;;;18.00;98.40;;;;;;5053422;28;20441;-56
2023/05/12 07:02:04;;;;;;;3.20;3.00;;;18.00;98.30;;;;;;5053358;28;20456;-56
2023/05/12 07:04:31;;;;;;;2.70;2.57;;;18.00;98.40;;;;;;5054038;28;20490;-56
2023/05/12 07:06:57;;;;;;;4.13;3.60;;;18.10;98.50;;;;;;5053399;28;20504;-56
2023/05/12 07:09:25;;;;;;;3.33;3.03;;;18.20;98.40;;;;;;5053076;28;20457;-56
2023/05/12 07:11:53;;;;;;;4.00;2.80;;;18.40;98.50;;;;;;5053160;28;20445;-55
2023/05/12 07:14:19;;;;;;;3.00;2.70;;;18.50;98.10;;;;;;5052891;28;20505;-55
2023/05/12 07:16:46;;;;;;;3.07;2.87;;;18.70;97.80;;;;;;5053026;28;21026;-56
2023/05/12 07:19:13;;;;;;;3.37;3.17;;;18.70;97.40;;;;;;5054078;28;20449;-55
2023/05/12 07:21:40;;;;;;;3.63;3.33;;;18.80;97.30;;;;;;5054987;28;20444;-56
2023/05/12 07:24:07;;;;;;;3.30;2.80;;;19.00;97.30;;;;;;5054090;28;20516;-56
2023/05/12 07:26:35;;;;;;;3.77;3.47;;;19.10;96.90;;;;;;5053949;28;20460;-56
2023/05/12 07:29:02;;;;;;;3.57;3.33;;;19.20;96.40;;;;;;5053724;28;20452;-56
2023/05/12 07:31:29;;;;;;;3.60;3.33;;;19.30;96.30;;;;;;5053079;28;20948;-56
2023/05/12 07:33:56;;;;;;;3.70;3.50;;;19.40;95.90;;;;;;5053177;28;20453;-56
2023/05/12 07:36:23;;;;;;;3.73;3.43;;;19.50;95.70;;;;;;5053465;28;20445;-56
2023/05/12 07:38:50;;;;;;;3.60;3.30;;;19.50;95.70;;;;;;5053116;28;20449;-56
2023/05/12 07:41:17;;;;;;;3.87;3.57;;;19.50;95.70;;;;;;5052775;28;20807;-56
2023/05/12 07:43:45;;;;;;;4.03;3.63;;;19.60;95.50;;;;;;5053042;28;20564;-56
2023/05/12 07:46:12;;;;;;;4.80;4.40;;;19.60;95.30;;;;;;5052991;28;20476;-56
2023/05/12 07:48:39;;;;;;;3.83;3.53;;;19.70;95.20;;;;;;5053072;28;20503;-56
2023/05/12 07:51:06;;;;;;;4.93;3.30;;;19.80;95.00;;;;;;5052924;28;20482;-56
2023/05/12 07:53:33;;;;;;;3.17;2.97;;;19.80;94.80;;;;;;5052996;28;20445;-56
2023/05/12 07:56:00;;;;;;;5.70;3.77;;;19.90;94.60;;;;;;5052710;28;20470;-55
2023/05/12 07:58:26;;;;;;;4.70;3.57;;;19.90;94.20;;;;;;5052903;28;20449;-56
2023/05/12 08:00:56;;;;;;;4.33;3.87;;;19.80;93.90;;;;;;5052624;28;20460;-56
2023/05/12 08:03:23;;;;;;;3.60;3.40;;;19.80;94.00;;;;;;5052818;28;20453;-56
2023/05/12 08:05:50;;;;;;;5.07;3.93;;;19.80;93.70;;;;;;5052690;28;20477;-56
2023/05/12 08:08:16;;;;;;;3.03;2.73;;;19.90;93.90;;;;;;5052587;28;20465;-56
2023/05/12 08:10:43;;;;;;;3.50;3.20;;;20.00;93.60;;;;;;5052882;28;20438;-56
2023/05/12 08:13:10;;;;;;;6.80;3.47;;;20.00;93.20;;;;;;5052772;28;20445;-56
2023/05/12 08:15:37;;;;;;;3.90;3.60;;;20.00;93.10;;;;;;5052947;28;20864;-57
2023/05/12 08:18:05;;;;;;;3.17;2.87;;;20.10;93.00;;;;;;5052757;28;20507;-57
2023/05/12 08:20:32;;;;;;;3.60;3.30;;;20.10;93.10;;;;;;5052497;28;20445;-57
2023/05/12 08:22:58;;;;;;;2.90;2.60;;;20.10;92.70;;;;;;5052662;28;20450;-57
2023/05/12 08:25:29;;;;;;;3.27;2.87;;;20.10;92.40;;;;;;5052579;28;20489;-57
2023/05/12 08:27:56;;;;;;;4.60;2.30;;;20.20;92.40;;;;;;5054975;28;20476;-57
2023/05/12 08:30:23;;;;;;;2.53;2.33;;;20.40;92.50;;;;;;5056210;28;20445;-57
2023/05/12 08:32:49;;;;;;;4.93;2.23;;;20.50;91.80;;;;;;5055748;28;20461;-56
2023/05/12 08:35:18;;;;;;;2.60;2.40;;;20.60;91.60;;;;;;5056028;28;20518;-56
2023/05/12 08:37:44;;;;;;;2.50;2.13;;;20.70;90.60;;;;;;5056900;28;20453;-57
2023/05/12 08:40:16;;;;;;;2.57;2.40;;;20.70;90.30;;;;;;5056057;28;20446;-57
2023/05/12 08:42:44;;;;;;;2.20;2.10;;;20.80;90.30;;;;;;5055734;28;20972;-57
2023/05/12 08:45:11;;;;;;;2.40;2.20;;;20.90;90.00;;;;;;5055577;28;21021;-56
2023/05/12 08:47:38;;;;;;;2.33;2.13;;;21.10;89.60;;;;;;5056415;28;20452;-57
2023/05/12 08:50:07;;;;;;;2.40;2.30;;;21.20;89.40;;;;;;5055639;28;20947;-57
2023/05/12 08:52:36;;;;;;;2.13;1.93;;;21.50;89.00;;;;;;5055783;28;20453;-57
2023/05/12 08:55:04;;;;;;;4.40;2.00;;;21.70;88.60;;;;;;5055750;28;20534;-57
2023/05/12 08:57:31;;;;;;;2.00;1.90;;;21.90;85.10;;;;;;5055705;28;20872;-57
2023/05/12 08:59:58;;;;;;;2.27;2.17;;;22.10;84.30;;;;;;5055318;28;20932;-57
2023/05/12 09:02:25;;;;;;;2.33;1.80;;;22.30;83.80;;;;;;5055606;28;20453;-57
2023/05/12 09:04:53;;;;;;;2.23;2.03;;;22.50;83.40;;;;;;5055194;28;20497;-58
2023/05/12 09:07:23;;;;;;;2.20;2.10;;;22.70;83.00;;;;;;5056139;28;20549;-57
2023/05/12 09:10:00;;;;;;;2.03;1.70;;;23.00;80.90;;;;;;5054992;28;20512;-57
2023/05/12 09:12:34;;;;;;;2.37;2.13;;;23.10;78.70;;;;;;5066964;28;20463;-57
2023/05/12 09:15:10;;;;;;;2.20;2.10;;;23.20;77.40;;;;;;5075276;28;20818;-57
2023/05/12 09:17:37;;;;;;;2.13;1.93;;;23.30;76.60;;;;;;5075412;28;20444;-57
2023/05/12 09:20:06;;;;;;;4.30;1.90;;;23.40;75.00;;;;;;5075325;28;20448;-57
2023/05/12 09:22:33;;;;;;;4.50;1.90;;;23.40;75.10;;;;;;5075241;28;20535;-57
2023/05/12 09:25:14;;;;;;;2.07;1.87;;;23.60;75.70;;;;;;5075059;28;20488;-57
2023/05/12 09:27:40;;;;;;;1.87;1.77;;;23.70;74.40;;;;;;5075027;28;20482;-57
2023/05/12 09:30:08;;;;;;;2.47;2.10;;;23.80;74.30;;;;;;5075113;28;20452;-57
2023/05/12 09:32:35;;;;;;;2.73;1.90;;;23.90;74.20;;;;;;5075027;28;20453;-57
2023/05/12 09:35:04;;;;;;;2.53;1.60;;;24.10;73.70;;;;;;5074623;28;20898;-57
2023/05/12 09:37:31;;;;;;;2.80;2.23;;;24.20;73.30;;;;;;5074651;28;20521;-57
2023/05/12 09:40:03;;;;;;;1.90;1.80;;;24.40;72.40;;;;;;5074914;28;20441;-57
2023/05/12 09:42:32;;;;;;;3.77;2.00;;;24.60;71.50;;;;;;5074905;28;20451;-57
2023/05/12 09:44:59;;;;;;;3.13;2.17;;;24.80;71.30;;;;;;5074730;28;20573;-57
2023/05/12 09:47:28;;;;;;;2.50;1.83;;;24.90;69.90;;;;;;5074699;28;20460;-57
2023/05/12 09:49:56;;;;;;;2.23;1.90;;;25.10;68.90;;;;;;5074681;28;20543;-58
2023/05/12 09:52:23;;;;;;;3.80;2.00;;;25.20;68.30;;;;;;5074641;28;20543;-57
2023/05/12 09:54:51;;;;;;;2.20;2.00;;;25.50;68.90;;;;;;5074220;28;21024;-57
2023/05/12 09:57:21;;;;;;;1.80;1.70;;;25.80;67.50;;;;;;5074590;28;20502;-57
2023/05/12 09:59:50;;;;;;;2.60;2.40;;;26.10;64.20;;;;;;5074651;28;20479;-57
2023/05/12 10:02:17;;;;;;;2.80;1.90;;;26.30;61.70;;;;;;5075024;28;20528;-57
2023/05/12 10:04:47;;;;;;;2.13;1.93;;;26.40;60.30;;;;;;5074334;28;20560;-57
2023/05/12 10:07:16;;;;;;;4.13;1.80;;;26.30;58.50;;;;;;5074469;28;20457;-57
2023/05/12 10:09:44;;;;;;;3.00;1.90;;;26.20;58.30;;;;;;5074030;28;20814;-57
2023/05/12 10:12:11;;;;;;;1.60;1.50;;;26.20;59.00;;;;;;5074506;28;20453;-57
2023/05/12 10:14:40;;;;;;;2.23;2.00;;;26.10;58.50;;;;;;5074868;28;20468;-57
2023/05/12 10:17:07;;;;;;;1.70;1.60;;;26.10;59.30;;;;;;5075346;28;20969;-57
2023/05/12 10:19:35;;;;;;;2.50;2.00;;;26.10;58.70;;;;;;5075304;28;20453;-57
2023/05/12 10:22:02;;;;;;;2.70;2.50;;;26.50;58.50;;;;;;5074302;28;20946;-57
2023/05/12 10:24:29;;;;;;;2.10;2.00;;;26.90;57.00;;;;;;5074337;28;20877;-57
2023/05/12 10:26:58;;;;;;;2.30;2.10;;;27.30;56.00;;;;;;5074297;28;20445;-57
2023/05/12 10:29:28;;;;;;;2.37;2.17;;;27.70;55.20;;;;;;5073958;28;20547;-57
2023/05/12 10:31:57;;;;;;;2.30;2.10;;;28.10;53.60;;;;;;5073966;28;20455;-57
2023/05/12 10:34:29;;;;;;;3.20;1.90;;;28.40;52.30;;;;;;5074019;28;20514;-57
2023/05/12 10:36:58;;;;;;;3.90;1.67;;;28.60;51.20;;;;;;5073880;28;20506;-57
2023/05/12 10:39:28;;;;;;;4.20;2.43;;;29.00;50.00;;;;;;5074075;28;20523;-57
2023/05/12 10:42:01;;;;;;;3.93;2.20;;;29.50;49.90;;;;;;5074127;28;20448;-57
2023/05/12 10:44:28;;;;;;;2.43;1.97;;;30.10;48.30;;;;;;5074211;28;20559;-57
2023/05/12 10:46:58;;;;;;;1.90;1.80;;;30.60;46.50;;;;;;5073698;28;20530;-57
2023/05/12 10:49:33;;;;;;;2.30;2.10;;;31.00;44.60;;;;;;5073122;28;20470;-57
2023/05/12 10:52:00;;;;;;;2.10;2.00;;;31.20;42.90;;;;;;5073327;28;20803;-57
2023/05/12 10:54:27;;;;;;;2.50;2.27;;;31.20;42.10;;;;;;5073372;28;20468;-57
2023/05/12 10:57:00;;;;;;;5.23;2.60;;;31.20;41.60;;;;;;5073421;28;20493;-57
2023/05/12 10:59:27;;;;;;;3.70;2.10;;;31.30;41.40;;;;;;5073678;28;20491;-57
2023/05/12 11:02:00;;;;;;;2.30;2.10;;;31.50;41.90;;;;;;5073505;28;20452;-57
2023/05/12 11:04:41;;;;;;;4.60;2.67;;;32.00;41.60;;;;;;5073417;28;20500;-57
2023/05/12 11:07:08;;;;;;;2.00;1.90;;;32.20;39.90;;;;;;5073219;28;20452;-57
2023/05/12 11:09:36;;;;;;;5.40;2.40;;;32.30;38.80;;;;;;5073061;28;20489;-57
2023/05/12 11:12:05;;;;;;;2.70;2.47;;;32.60;38.60;;;;;;5073354;28;20531;-57
2023/05/12 11:14:32;;;;;;;2.87;2.40;;;32.60;37.90;;;;;;5073324;28;20495;-57
2023/05/12 11:17:00;;;;;;;2.30;2.20;;;32.60;38.80;;;;;;5073431;28;20440;-57
2023/05/12 11:19:27;;;;;;;2.27;2.10;;;32.30;38.00;;;;;;5073305;28;20459;-57
2023/05/12 11:21:55;;;;;;;2.53;2.30;;;32.20;38.60;;;;;;5073829;28;20522;-57
2023/05/12 11:24:22;;;;;;;2.83;2.53;;;32.30;38.00;;;;;;5072849;28;20463;-57
2023/05/12 11:26:50;;;;;;;2.50;2.33;;;32.80;37.30;;;;;;5073182;28;20533;-57
2023/05/12 11:29:18;;;;;;;3.23;2.40;;;33.20;35.90;;;;;;5072722;28;20448;-57
2023/05/12 11:31:47;;;;;;;2.87;2.63;;;33.10;35.90;;;;;;5073200;28;20472;-57
2023/05/12 11:34:16;;;;;;;2.73;2.53;;;33.10;36.20;;;;;;5073110;28;20525;-57
2023/05/12 11:36:44;;;;;;;3.83;2.47;;;33.10;36.10;;;;;;5073196;28;20472;-57
2023/05/12 11:39:15;;;;;;;2.80;2.60;;;33.00;35.90;;;;;;5073097;28;20535;-57
2023/05/12 11:41:42;;;;;;;3.93;2.23;;;32.90;36.00;;;;;;5073058;28;20452;-57
2023/05/12 11:44:19;;;;;;;2.50;2.30;;;32.80;35.50;;;;;;5073438;28;20836;-57
2023/05/12 11:46:56;;;;;;;2.30;2.10;;;32.60;35.40;;;;;;5072975;28;20464;-57
2023/05/12 11:49:24;;;;;;;3.57;2.30;;;32.80;36.40;;;;;;5073021;28;20450;-57
2023/05/12 11:51:52;;;;;;;2.90;2.63;;;33.40;36.20;;;;;;5072704;28;20937;-57
2023/05/12 11:54:20;;;;;;;2.00;1.90;;;34.10;34.50;;;;;;5072869;28;20496;-57
2023/05/12 11:56:48;;;;;;;2.70;2.50;;;34.80;34.10;;;;;;5072913;28;20444;-57
2023/05/12 11:59:26;;;;;;;2.60;2.40;;;35.00;32.90;;;;;;5072947;28;20206;-57
2023/05/12 12:01:52;;;;;;;2.83;1.93;;;35.00;32.50;;;;;;5075411;28;20565;-57
2023/05/12 12:04:30;;;;;;;2.30;2.20;;;34.90;32.30;;;;;;5076675;28;20232;-57
2023/05/12 12:06:58;;;;;;;3.23;2.70;;;35.00;31.90;;;;;;5076683;28;20576;-57
2023/05/12 12:09:31;;;;;;;2.50;2.30;;;35.50;32.00;;;;;;5076174;28;20674;-57
2023/05/12 12:11:57;;;;;;;2.97;2.20;;;36.10;30.20;;;;;;5076520;28;20221;-57
2023/05/12 12:14:24;;;;;;;2.33;2.13;;;36.60;29.40;;;;;;5076490;28;20225;-57
2023/05/12 12:16:51;;;;;;;3.38;2.28;;;36.90;29.40;;;;;;5076554;28;20217;-57
2023/05/12 12:19:18;;;;;;;3.22;2.20;;;37.20;28.80;;;;;;5076206;28;20201;-57
2023/05/12 12:21:44;;;;;;;2.38;2.17;;;37.50;28.50;;;;;;5076394;28;20289;-57
2023/05/12 12:24:12;;;;;;;3.05;2.08;;;37.70;27.90;;;;;;5076330;28;20225;-57
2023/05/12 12:26:39;;;;;;;3.58;2.50;;;37.90;26.90;;;;;;5076251;28;20224;-57
2023/05/12 12:29:06;;;;;;;3.40;2.17;;;37.60;27.00;;;;;;5076259;28;20210;-57
2023/05/12 12:31:35;;;;;;;2.50;2.30;;;36.80;27.70;;;;;;5076241;28;20209;-57
2023/05/12 12:34:02;;;;;;;3.58;2.55;;;35.80;28.90;;;;;;5076133;28;20205;-57
2023/05/12 12:36:29;;;;;;;3.43;2.57;;;34.70;29.90;;;;;;5076071;28;20205;-57
2023/05/12 12:38:56;;;;;;;3.57;2.60;;;33.60;31.90;;;;;;5076152;28;20206;-56
2023/05/12 12:41:24;;;;;;;2.73;2.53;;;32.60;33.90;;;;;;5075709;28;20965;-56
2023/05/12 12:43:51;;;;;;;4.23;3.07;;;31.70;35.60;;;;;;5075928;28;20484;-56